Time;durP1;ratioP1;P1;durP2;ratioP2;P2;SDS_P1;SDS_P2;PMS_P1;PMS_P2;Temp;Humidity;BMP_temperature;BMP_pressure;BME280_temperature;BME280_humidity;BME280_pressure;Samples;Min_cycle;Max_cycle;Signal;HPM_P1;HPM_P2
2021/08/10 00:02:09;;;;;;;34.48;23.12;;;;;;;22.16;82.69;100759.53;1853852;77;21076;-60
2021/08/10 00:04:38;;;;;;;42.80;33.75;;;;;;;22.17;82.64;100757.22;1853988;77;21087;-60
2021/08/10 00:07:06;;;;;;;49.83;39.35;;;;;;;22.19;82.61;100762.45;1853974;77;21091;-60
2021/08/10 00:09:35;;;;;;;51.00;38.73;;;;;;;22.19;82.64;100758.44;1854003;77;21071;-60
2021/08/10 00:12:04;;;;;;;61.68;45.03;;;;;;;22.20;82.77;100765.48;1853981;77;21022;-60
2021/08/10 00:14:33;;;;;;;72.15;47.13;;;;;;;22.20;82.84;100756.59;1854035;77;21130;-61
2021/08/10 00:17:01;;;;;;;75.15;55.23;;;;;;;22.19;82.82;100763.80;1854029;77;21067;-60
2021/08/10 00:19:30;;;;;;;76.15;48.78;;;;;;;22.22;82.61;100778.75;1853993;77;21569;-60
2021/08/10 00:21:59;;;;;;;71.17;47.43;;;;;;;22.22;82.51;100778.25;1854013;77;21145;-60
2021/08/10 00:24:28;;;;;;;70.70;49.18;;;;;;;22.23;82.46;100785.33;1853983;77;21067;-60
2021/08/10 00:26:56;;;;;;;60.90;46.20;;;;;;;22.22;82.62;100784.96;1853972;77;21075;-61
2021/08/10 00:29:25;;;;;;;70.70;50.15;;;;;;;22.21;82.71;100777.92;1854048;77;21045;-60
2021/08/10 00:31:54;;;;;;;50.35;34.67;;;;;;;22.18;83.07;100782.20;1854075;77;21116;-60
2021/08/10 00:34:22;;;;;;;40.85;24.07;;;;;;;22.17;83.04;100784.54;1854015;77;21098;-60
2021/08/10 00:36:51;;;;;;;34.15;22.20;;;;;;;22.18;83.10;100780.86;1854094;77;21125;-60
2021/08/10 00:39:20;;;;;;;43.58;28.42;;;;;;;22.18;83.08;100786.22;1853962;77;21178;-60
2021/08/10 00:41:49;;;;;;;58.40;34.98;;;;;;;22.18;83.15;100783.04;1853914;77;21038;-60
2021/08/10 00:44:18;;;;;;;57.38;36.77;;;;;;;22.17;83.26;100772.47;1854085;77;21120;-60
2021/08/10 00:46:48;;;;;;;49.13;29.57;;;;;;;22.19;83.25;100771.84;1853969;76;21086;-60
2021/08/10 00:49:17;;;;;;;47.60;28.85;;;;;;;22.22;83.05;100784.12;1853994;77;21177;-60
2021/08/10 00:51:48;;;;;;;39.78;27.40;;;;;;;22.23;83.09;100774.60;1853998;77;21589;-60
2021/08/10 00:54:17;;;;;;;39.65;23.07;;;;;;;22.23;83.01;100770.58;1880719;76;21449;-60
2021/08/10 00:56:48;;;;;;;29.95;17.55;;;;;;;22.23;83.02;100769.24;1871989;75;21170;-60
2021/08/10 00:59:18;;;;;;;30.92;16.45;;;;;;;22.23;83.16;100767.90;1872393;75;21058;-60
2021/08/10 01:01:49;;;;;;;29.05;16.52;;;;;;;22.23;83.10;100770.58;1872351;75;21120;-60
2021/08/10 01:04:17;;;;;;;28.73;18.37;;;;;;;22.24;83.10;100766.05;1871729;77;21051;-60
2021/08/10 01:07:16;;;;;;;28.65;18.80;;;;;;;22.22;83.16;100768.03;1871706;77;21071;-60
2021/08/10 01:09:55;;;;;;;25.82;16.35;;;;;;;22.22;83.18;100765.34;1871546;76;21540;-60
2021/08/10 01:12:29;;;;;;;23.85;13.98;;;;;;;22.23;82.97;100759.02;1871626;77;21520;-60
2021/08/10 01:15:02;;;;;;;22.55;15.13;;;;;;;22.23;82.89;100759.86;1871583;76;21057;-62
2021/08/10 01:17:35;;;;;;;20.15;14.50;;;;;;;22.24;82.81;100766.90;1872233;75;21132;-60
2021/08/10 01:20:29;;;;;;;24.40;14.53;;;;;;;22.23;82.77;100762.53;1867810;75;21070;-60
2021/08/10 01:23:01;;;;;;;22.32;16.23;;;;;;;22.23;82.78;100766.56;1871811;76;21517;-60
2021/08/10 01:25:48;;;;;;;;;;;;;;;22.22;82.84;100763.50;1874529;75;21065;-60
2021/08/10 01:28:27;;;;;;;29.02;16.25;;;;;;;22.22;82.82;100768.87;1872001;75;20114;-60
2021/08/10 01:31:01;;;;;;;19.73;14.78;;;;;;;22.21;82.80;100780.59;1884971;75;21124;-60
2021/08/10 01:33:33;;;;;;;25.48;15.40;;;;;;;22.22;82.86;100780.09;1871996;75;21059;-60
2021/08/10 01:36:05;;;;;;;21.45;14.20;;;;;;;22.20;83.12;100784.25;1872349;75;21063;-60
2021/08/10 01:38:35;;;;;;;24.18;14.07;;;;;;;22.20;83.28;100784.25;1871764;77;21031;-60
2021/08/10 01:41:05;;;;;;;23.47;15.93;;;;;;;22.20;83.30;100796.81;1871712;77;21030;-60
2021/08/10 01:43:36;;;;;;;28.65;16.52;;;;;;;22.18;83.43;100799.63;1871867;77;21454;-60
2021/08/10 01:46:05;;;;;;;30.30;17.57;;;;;;;22.16;83.74;100796.23;1871703;77;21113;-60
2021/08/10 01:48:36;;;;;;;34.23;18.65;;;;;;;22.10;84.11;100780.69;1871623;76;21512;-60
2021/08/10 01:51:07;;;;;;;36.00;19.50;;;;;;;22.06;84.51;100788.62;1872239;75;21062;-60
2021/08/10 01:53:39;;;;;;;39.75;20.68;;;;;;;22.01;84.75;100786.86;1871774;77;21120;-60
2021/08/10 01:56:10;;;;;;;37.80;18.55;;;;;;;21.98;84.79;100783.46;1871814;76;21058;-60
2021/08/10 01:58:41;;;;;;;40.38;19.80;;;;;;;21.95;84.98;100781.03;1872698;75;21059;-62
2021/08/10 02:01:10;;;;;;;34.35;21.27;;;;;;;21.91;85.13;100788.98;1871646;77;21106;-60
2021/08/10 02:03:40;;;;;;;36.23;20.45;;;;;;;21.89;85.14;100794.98;1871782;77;21121;-60
2021/08/10 02:06:12;;;;;;;35.52;19.90;;;;;;;21.84;85.25;100794.52;1871908;75;21572;-60
2021/08/10 02:08:42;;;;;;;48.50;21.87;;;;;;;21.84;85.31;100798.53;1871834;77;21023;-60
2021/08/10 02:11:12;;;;;;;50.70;27.75;;;;;;;21.82;85.39;100794.27;1871730;76;21032;-60
2021/08/10 02:13:41;;;;;;;59.65;34.00;;;;;;;21.80;85.59;100795.77;1871773;77;21181;-60
2021/08/10 02:16:12;;;;;;;56.50;31.80;;;;;;;21.79;85.74;100807.45;1871769;76;21054;-60
2021/08/10 02:18:42;;;;;;;52.62;29.00;;;;;;;21.78;85.87;100817.33;1872248;75;21153;-60
2021/08/10 02:21:31;;;;;;;78.83;39.67;;;;;;;21.78;85.99;100821.82;1872045;75;21136;-60
2021/08/10 02:24:07;;;;;;;43.87;23.62;;;;;;;21.78;87.66;100808.42;1871593;77;21560;-60
2021/08/10 02:26:46;;;;;;;41.08;22.85;;;;;;;21.78;88.40;100837.91;1872661;75;21590;-60
2021/08/10 02:29:18;;;;;;;70.50;33.53;;;;;;;21.83;88.09;100885.27;1871930;75;21039;-60
2021/08/10 02:31:48;;;;;;;67.42;31.57;;;;;;;21.81;88.22;100892.59;1871786;77;21551;-60
2021/08/10 02:34:19;;;;;;;56.00;27.35;;;;;;;21.77;88.42;100882.62;1871543;76;21501;-60
2021/08/10 02:36:51;;;;;;;62.13;23.12;;;;;;;21.75;88.60;100891.28;1871778;76;21092;-60
2021/08/10 02:39:21;;;;;;;38.85;16.40;;;;;;;21.70;89.33;100890.81;1871829;77;21030;-60
2021/08/10 02:41:54;;;;;;;26.90;7.43;;;;;;;21.61;89.65;100900.12;1871946;75;21042;-60
2021/08/10 02:44:27;;;;;;;23.80;6.47;;;;;;;21.38;90.43;100924.27;1871953;77;21144;-60
2021/08/10 02:46:56;;;;;;;15.03;4.45;;;;;;;21.10;90.96;100951.95;1871866;77;21180;-61
2021/08/10 02:49:26;;;;;;;12.03;5.20;;;;;;;20.88;91.05;100942.56;1871704;77;21567;-60
2021/08/10 02:51:56;;;;;;;24.20;6.90;;;;;;;20.58;91.19;100934.15;1871720;77;21070;-60
2021/08/10 02:54:25;;;;;;;13.30;6.50;;;;;;;20.57;91.30;100939.12;1871821;76;21022;-60
2021/08/10 02:57:03;;;;;;;15.95;6.80;;;;;;;20.56;91.33;100964.64;1874067;76;21073;-60
2021/08/10 02:59:34;;;;;;;14.70;6.78;;;;;;;20.24;91.11;100958.63;1823929;79;21214;-60
2021/08/10 03:02:24;;;;;;;12.35;6.35;;;;;;;20.20;91.25;100937.11;1826130;78;21618;-60
2021/08/10 03:04:58;;;;;;;10.72;5.33;;;;;;;20.18;91.10;100923.02;1844985;77;22016;-60
2021/08/10 03:07:28;;;;;;;11.63;5.55;;;;;;;20.00;91.32;100920.76;1808814;79;22432;-60
2021/08/10 03:10:00;;;;;;;12.13;4.95;;;;;;;19.91;91.53;100921.45;1845079;78;21975;-60
2021/08/10 03:12:32;;;;;;;12.98;5.03;;;;;;;19.82;91.74;100916.80;1808932;79;21952;-60
2021/08/10 03:15:00;;;;;;;10.90;4.75;;;;;;;19.86;91.74;100913.80;1845271;78;21821;-60
2021/08/10 03:17:32;;;;;;;13.18;5.60;;;;;;;19.81;91.73;100907.10;1808967;79;21914;-60
2021/08/10 03:20:04;;;;;;;14.75;6.12;;;;;;;19.84;91.67;100896.16;1845091;77;21955;-60
2021/08/10 03:22:35;;;;;;;12.70;5.78;;;;;;;19.80;91.74;100897.37;1808885;79;22346;-60
2021/08/10 03:25:06;;;;;;;14.03;6.92;;;;;;;19.73;91.93;100896.12;1845255;78;21816;-59
2021/08/10 03:27:35;;;;;;;14.63;5.45;;;;;;;19.73;92.06;100892.95;1808984;79;21863;-60
2021/08/10 03:30:08;;;;;;;21.97;6.97;;;;;;;19.74;92.13;100900.52;1845188;78;21897;-60
2021/08/10 03:32:37;;;;;;;19.15;6.75;;;;;;;19.79;92.05;100906.34;1809137;79;21321;-60
2021/08/10 03:35:07;;;;;;;15.23;6.83;;;;;;;19.86;91.88;100903.58;1845280;78;21584;-59
2021/08/10 03:37:37;;;;;;;15.45;6.58;;;;;;;19.93;91.75;100892.80;1809217;79;21144;-60
2021/08/10 03:40:08;;;;;;;24.12;9.75;;;;;;;19.94;91.92;100878.48;1845279;78;21541;-59
2021/08/10 03:42:38;;;;;;;24.57;10.28;;;;;;;20.00;91.87;100875.33;1809154;79;21091;-59
2021/08/10 03:45:08;;;;;;;22.50;8.00;;;;;;;20.01;91.95;100881.05;1845264;78;21117;-61
2021/08/10 03:47:39;;;;;;;17.82;8.20;;;;;;;19.99;92.21;100870.97;1816049;79;21110;-60
2021/08/10 03:50:09;;;;;;;16.15;7.70;;;;;;;19.96;92.41;100867.18;1816047;79;21051;-59
2021/08/10 03:52:38;;;;;;;14.18;7.80;;;;;;;19.90;92.59;100866.33;1815943;79;21052;-60
2021/08/10 03:55:09;;;;;;;14.07;7.67;;;;;;;19.87;92.76;100863.87;1815933;79;21125;-60
2021/08/10 03:57:40;;;;;;;16.45;7.35;;;;;;;19.87;92.85;100855.86;1815928;78;21087;-60
2021/08/10 04:00:10;;;;;;;14.58;6.85;;;;;;;19.88;92.91;100851.36;1816102;79;21407;-59
2021/08/10 04:02:51;;;;;;;15.13;7.20;;;;;;;19.87;92.94;100846.51;1815033;78;22379;-59
2021/08/10 04:05:22;;;;;;;16.42;9.70;;;;;;;19.84;92.95;100840.05;1815609;78;21933;-59
2021/08/10 04:07:51;;;;;;;19.65;10.10;;;;;;;19.88;92.94;100835.33;1815945;79;22384;-59
2021/08/10 04:10:21;;;;;;;19.37;9.18;;;;;;;19.88;92.92;100833.50;1815857;79;21942;-60
2021/08/10 04:12:50;;;;;;;17.62;11.33;;;;;;;19.92;92.91;100828.77;1815973;79;22335;-60
2021/08/10 04:15:20;;;;;;;17.77;9.70;;;;;;;19.91;92.87;100819.06;1816507;77;22014;-59
2021/08/10 04:17:50;;;;;;;12.85;8.20;;;;;;;19.89;92.82;100817.84;1815923;79;21931;-60
2021/08/10 04:20:19;;;;;;;19.67;8.93;;;;;;;19.88;92.73;100822.81;1815884;79;21853;-59
2021/08/10 04:22:49;;;;;;;14.28;8.45;;;;;;;19.89;92.66;100821.85;1804270;79;21931;-60
2021/08/10 04:25:18;;;;;;;18.87;9.48;;;;;;;19.91;92.60;100825.25;1815990;79;22343;-59
2021/08/10 04:27:47;;;;;;;16.55;8.40;;;;;;;19.92;92.54;100824.30;1815960;79;21954;-59
2021/08/10 04:30:17;;;;;;;18.87;9.50;;;;;;;19.93;92.50;100821.13;1815669;78;21765;-59
2021/08/10 04:32:46;;;;;;;36.68;19.82;;;;;;;19.94;92.45;100824.16;1815896;79;22093;-59
2021/08/10 04:35:16;;;;;;;42.20;19.57;;;;;;;19.95;92.41;100812.02;1816202;77;21336;-60
2021/08/10 04:37:45;;;;;;;14.25;7.58;;;;;;;19.95;92.34;100806.67;1816138;79;21117;-59
2021/08/10 04:40:15;;;;;;;17.27;7.30;;;;;;;19.96;92.26;100800.86;1815919;79;21629;-60
2021/08/10 04:42:51;;;;;;;12.55;7.95;;;;;;;19.96;92.21;100804.88;1795662;78;21091;-59
2021/08/10 04:45:21;;;;;;;18.95;6.72;;;;;;;19.98;92.15;100800.25;1816071;78;21537;-59
2021/08/10 04:47:52;;;;;;;14.90;8.23;;;;;;;19.97;92.13;100812.75;1816048;79;21137;-59
2021/08/10 04:50:21;;;;;;;42.40;23.57;;;;;;;19.99;92.04;100813.50;1816168;79;21052;-60
2021/08/10 04:52:51;;;;;;;64.17;33.38;;;;;;;20.02;92.01;100817.25;1816216;78;21117;-59
2021/08/10 04:55:21;;;;;;;87.08;46.05;;;;;;;20.06;91.95;100821.88;1816168;79;21165;-60
2021/08/10 04:57:50;;;;;;;60.73;33.63;;;;;;;20.10;91.89;100829.17;1824282;77;21561;-59
2021/08/10 05:00:20;;;;;;;20.65;12.55;;;;;;;20.13;91.83;100836.47;1850916;76;21082;-59
2021/08/10 05:02:49;;;;;;;23.75;13.93;;;;;;;20.15;91.80;100844.38;1851071;77;21189;-59
2021/08/10 05:05:18;;;;;;;44.00;29.75;;;;;;;20.16;91.73;100848.73;1851096;77;21570;-60
2021/08/10 05:07:47;;;;;;;47.70;33.42;;;;;;;20.17;91.71;100853.13;1851100;77;21562;-59
2021/08/10 05:10:17;;;;;;;29.80;18.92;;;;;;;20.19;91.71;100859.20;1851001;77;21537;-60
2021/08/10 05:12:47;;;;;;;25.95;16.32;;;;;;;20.20;91.68;100862.25;1850830;76;21107;-60
2021/08/10 05:15:16;;;;;;;20.00;12.53;;;;;;;20.19;91.73;100860.53;1851154;77;21082;-60
2021/08/10 05:17:45;;;;;;;25.82;13.93;;;;;;;20.19;91.75;100855.19;1851042;77;21145;-59
2021/08/10 05:20:14;;;;;;;61.75;40.63;;;;;;;20.20;91.80;100862.25;1851116;77;21027;-59
2021/08/10 05:22:42;;;;;;;65.55;47.65;;;;;;;20.21;91.83;100858.59;1850970;77;21051;-59
2021/08/10 05:25:11;;;;;;;25.52;16.35;;;;;;;20.25;91.81;100860.05;1850969;77;21034;-60
2021/08/10 05:27:41;;;;;;;22.22;12.58;;;;;;;20.26;91.77;100857.75;1851190;76;21478;-59
2021/08/10 05:30:11;;;;;;;22.87;15.08;;;;;;;20.27;91.70;100860.81;1850985;77;21070;-59
2021/08/10 05:32:40;;;;;;;38.75;26.90;;;;;;;20.26;91.68;100856.42;1851118;77;21158;-59
2021/08/10 05:35:10;;;;;;;14.93;8.33;;;;;;;20.28;91.67;100867.84;1851144;77;21557;-59
2021/08/10 05:37:39;;;;;;;11.40;6.80;;;;;;;20.32;91.64;100870.63;1850974;77;21083;-59
2021/08/10 05:40:09;;;;;;;15.03;7.17;;;;;;;20.34;91.59;100866.02;1850896;77;21173;-60
2021/08/10 05:42:38;;;;;;;13.70;6.42;;;;;;;20.36;91.52;100869.45;1850957;77;21059;-59
2021/08/10 05:45:09;;;;;;;12.78;6.55;;;;;;;20.39;91.45;100865.67;1850650;77;21111;-60
2021/08/10 05:47:39;;;;;;;11.05;5.92;;;;;;;20.41;91.38;100867.23;1851042;77;21054;-59
2021/08/10 05:50:10;;;;;;;12.30;6.12;;;;;;;20.48;91.31;100865.44;1850722;77;21054;-59
2021/08/10 05:52:38;;;;;;;10.32;6.65;;;;;;;20.51;91.24;100866.05;1851019;77;21286;-59
2021/08/10 05:55:08;;;;;;;16.50;7.20;;;;;;;20.57;91.19;100866.05;1851063;77;21110;-59
2021/08/10 05:57:37;;;;;;;14.68;7.40;;;;;;;20.60;91.13;100874.72;1851091;77;21067;-59
2021/08/10 06:00:07;;;;;;;12.30;7.00;;;;;;;20.65;91.08;100874.34;1851071;77;21110;-59
2021/08/10 06:02:37;;;;;;;13.72;6.75;;;;;;;20.71;91.04;100875.67;1848021;77;21090;-60
2021/08/10 06:05:07;;;;;;;15.83;8.90;;;;;;;20.77;90.97;100875.20;1850851;77;21126;-60
2021/08/10 06:07:36;;;;;;;24.25;13.65;;;;;;;20.80;90.98;100882.50;1851156;77;21082;-59
2021/08/10 06:10:06;;;;;;;19.23;11.73;;;;;;;20.79;90.97;100886.14;1850918;77;21611;-60
2021/08/10 06:12:34;;;;;;;15.53;7.70;;;;;;;20.81;90.93;100883.34;1851024;77;21058;-59
2021/08/10 06:15:03;;;;;;;14.40;7.35;;;;;;;20.82;90.92;100881.02;1850969;77;21078;-59
2021/08/10 06:17:32;;;;;;;10.88;5.62;;;;;;;20.85;90.93;100879.44;1850840;77;21086;-60
2021/08/10 06:20:02;;;;;;;14.25;6.35;;;;;;;20.90;90.88;100868.38;1850979;77;21121;-59
2021/08/10 06:22:30;;;;;;;17.75;7.20;;;;;;;20.98;90.76;100872.61;1850986;77;21129;-60
2021/08/10 06:24:59;;;;;;;10.30;5.15;;;;;;;21.12;90.62;100872.84;1850987;77;21074;-59
2021/08/10 06:27:28;;;;;;;13.85;6.90;;;;;;;21.26;90.42;100867.69;1850991;77;21145;-60
2021/08/10 06:29:57;;;;;;;10.28;5.42;;;;;;;21.38;90.20;100861.33;1850960;77;21627;-60
2021/08/10 06:32:25;;;;;;;12.90;7.53;;;;;;;21.53;90.03;100866.77;1851104;77;21047;-59
2021/08/10 06:34:54;;;;;;;15.13;10.15;;;;;;;21.63;89.89;100871.36;1851051;77;21055;-59
2021/08/10 06:37:24;;;;;;;16.23;8.08;;;;;;;21.72;89.74;100871.93;1851401;76;21118;-59
2021/08/10 06:39:53;;;;;;;15.08;6.53;;;;;;;21.83;89.60;100881.25;1851067;77;21509;-59
2021/08/10 06:42:22;;;;;;;10.50;5.65;;;;;;;21.90;89.56;100870.87;1850844;77;21612;-60
2021/08/10 06:44:53;;;;;;;6.45;4.78;;;;;;;21.95;89.51;100876.70;1849095;77;21078;-59
2021/08/10 06:47:21;;;;;;;8.78;4.85;;;;;;;21.96;89.46;100876.55;1851079;77;21517;-59
2021/08/10 06:49:50;;;;;;;7.22;4.05;;;;;;;21.96;89.38;100867.16;1850997;77;21055;-59
2021/08/10 06:52:19;;;;;;;7.75;3.77;;;;;;;22.01;89.34;100871.30;1850920;77;21094;-59
2021/08/10 06:54:48;;;;;;;6.80;4.20;;;;;;;22.02;89.21;100864.94;1851027;77;21587;-60
2021/08/10 06:57:17;;;;;;;6.70;4.28;;;;;;;22.04;89.11;100866.53;1850929;77;21164;-59
2021/08/10 06:59:46;;;;;;;9.83;4.75;;;;;;;22.03;89.03;100872.02;1850075;77;21168;-59
2021/08/10 07:02:14;;;;;;;7.80;3.85;;;;;;;22.05;88.92;100866.03;1850894;77;21090;-59
2021/08/10 07:04:43;;;;;;;8.95;4.33;;;;;;;22.07;88.91;100874.29;1851050;77;21078;-59
2021/08/10 07:07:12;;;;;;;7.53;4.22;;;;;;;22.09;88.83;100872.83;1851042;77;21086;-59
2021/08/10 07:09:42;;;;;;;7.05;4.30;;;;;;;22.12;88.72;100873.41;1850601;77;21122;-60
2021/08/10 07:12:11;;;;;;;5.90;3.80;;;;;;;22.21;88.61;100879.83;1851055;77;21534;-59
2021/08/10 07:14:42;;;;;;;8.75;4.53;;;;;;;22.29;88.54;100883.22;1850560;77;21640;-59
2021/08/10 07:17:11;;;;;;;6.78;4.25;;;;;;;22.37;88.45;100879.36;1850971;77;21082;-59
2021/08/10 07:19:39;;;;;;;8.75;4.83;;;;;;;22.48;88.32;100887.36;1850913;77;21070;-59
2021/08/10 07:22:10;;;;;;;10.65;5.10;;;;;;;22.55;88.21;100876.92;1849354;77;21200;-59
2021/08/10 07:24:39;;;;;;;10.32;7.05;;;;;;;22.61;88.13;100876.41;1851107;77;21094;-59
2021/08/10 07:27:08;;;;;;;19.35;9.08;;;;;;;22.70;88.09;100868.88;1851020;77;21662;-59
2021/08/10 07:29:37;;;;;;;19.45;9.00;;;;;;;22.84;87.95;100860.09;1850986;77;21058;-59
2021/08/10 07:32:06;;;;;;;19.57;9.95;;;;;;;23.04;87.78;100859.69;1850950;77;21517;-59
2021/08/10 07:34:35;;;;;;;19.20;10.53;;;;;;;23.16;87.65;100859.90;1850817;77;21075;-60
2021/08/10 07:37:04;;;;;;;16.82;8.48;;;;;;;23.31;87.43;100853.63;1851108;77;21105;-59
2021/08/10 07:39:33;;;;;;;23.30;10.10;;;;;;;23.40;87.30;100852.78;1851003;77;21129;-59
2021/08/10 07:42:01;;;;;;;22.42;9.28;;;;;;;23.52;87.03;100850.83;1851069;77;21087;-59
2021/08/10 07:44:32;;;;;;;16.85;8.03;;;;;;;23.59;86.85;100843.90;1850635;77;21063;-59
2021/08/10 07:47:04;;;;;;;21.60;8.88;;;;;;;23.64;86.65;100847.48;1850721;77;21594;-59
2021/08/10 07:49:34;;;;;;;19.30;9.48;;;;;;;23.75;86.38;100850.02;1851210;77;21031;-59
2021/08/10 07:52:04;;;;;;;18.80;9.68;;;;;;;23.84;86.13;100849.20;1851179;77;21438;-59
2021/08/10 07:54:34;;;;;;;17.80;10.00;;;;;;;23.94;86.04;100846.52;1851240;77;21058;-59
2021/08/10 07:57:02;;;;;;;17.67;9.90;;;;;;;24.03;86.05;100846.12;1851053;77;21168;-59
2021/08/10 07:59:31;;;;;;;24.77;10.13;;;;;;;24.10;86.08;100844.55;1851016;77;21074;-59
2021/08/10 08:02:00;;;;;;;22.13;10.38;;;;;;;24.17;85.93;100844.32;1822620;79;21082;-60
2021/08/10 08:04:29;;;;;;;25.40;12.43;;;;;;;24.24;85.67;100846.78;1822581;79;21071;-59
2021/08/10 08:06:57;;;;;;;21.05;10.35;;;;;;;24.31;85.40;100848.40;1822655;79;21453;-59
2021/08/10 08:09:26;;;;;;;21.73;10.45;;;;;;;24.33;85.19;100855.83;1822621;79;21185;-59
2021/08/10 08:11:55;;;;;;;21.93;11.60;;;;;;;24.31;84.91;100850.22;1822622;79;21054;-61
2021/08/10 08:14:24;;;;;;;25.65;12.73;;;;;;;24.26;84.59;100850.17;1822562;79;21063;-59
2021/08/10 08:16:53;;;;;;;23.18;11.83;;;;;;;24.28;84.41;100848.17;1822716;79;21529;-59
2021/08/10 08:19:22;;;;;;;22.42;14.80;;;;;;;24.30;84.08;100841.81;1822633;79;21593;-59
2021/08/10 08:21:52;;;;;;;20.72;12.20;;;;;;;24.43;83.72;100838.29;1822678;79;21074;-59
2021/08/10 08:24:21;;;;;;;21.33;10.45;;;;;;;24.57;83.44;100832.45;1822701;79;21533;-59
2021/08/10 08:26:50;;;;;;;8.90;6.85;;;;;;;24.77;82.83;100828.30;1822524;79;21148;-59
2021/08/10 08:29:19;;;;;;;11.45;6.33;;;;;;;25.17;82.12;100821.67;1822857;79;21105;-59
2021/08/10 08:31:47;;;;;;;12.30;6.40;;;;;;;25.43;81.10;100817.26;1822618;79;21051;-59
2021/08/10 08:34:17;;;;;;;12.18;7.05;;;;;;;25.73;79.99;100811.09;1822664;79;21623;-59
2021/08/10 08:36:45;;;;;;;12.00;6.53;;;;;;;26.08;79.07;100809.82;1822646;78;21051;-59
2021/08/10 08:39:14;;;;;;;15.68;6.70;;;;;;;26.17;78.46;100808.86;1822619;79;21474;-60
2021/08/10 08:41:44;;;;;;;15.78;8.08;;;;;;;26.09;78.37;100797.52;1822692;79;21031;-60
2021/08/10 08:44:19;;;;;;;12.82;7.35;;;;;;;25.93;78.21;100797.42;1822620;79;21086;-59
2021/08/10 08:46:52;;;;;;;13.68;8.45;;;;;;;25.84;78.21;100797.86;1822704;79;21128;-59
2021/08/10 08:49:25;;;;;;;16.95;10.13;;;;;;;25.80;77.93;100783.84;1822554;79;21524;-59
2021/08/10 08:51:55;;;;;;;22.97;9.77;;;;;;;25.94;77.70;100785.64;1822767;79;21083;-59
2021/08/10 08:54:26;;;;;;;14.28;7.78;;;;;;;26.32;77.25;100776.72;1822750;79;21551;-59
2021/08/10 08:56:55;;;;;;;12.00;5.92;;;;;;;26.68;76.55;100772.52;1822711;79;21047;-60
2021/08/10 08:59:24;;;;;;;9.98;5.03;;;;;;;26.96;75.74;100776.64;1822701;79;21056;-60
2021/08/10 09:01:54;;;;;;;8.80;5.22;;;;;;;27.11;75.19;100762.45;1818518;77;21545;-59
2021/08/10 09:04:22;;;;;;;6.72;4.70;;;;;;;27.29;74.85;100757.76;1815916;79;21542;-59
2021/08/10 09:06:55;;;;;;;6.80;4.15;;;;;;;27.54;74.25;100752.36;1815437;78;21094;-59
2021/08/10 09:09:31;;;;;;;8.10;4.10;;;;;;;27.34;73.06;100746.45;1816175;79;21118;-60
2021/08/10 09:12:12;;;;;;;6.45;4.20;;;;;;;27.01;73.02;100747.75;1815716;78;21153;-59
2021/08/10 09:14:49;;;;;;;7.58;4.60;;;;;;;26.87;72.28;100738.95;1816034;78;21470;-60
2021/08/10 09:17:22;;;;;;;7.78;4.15;;;;;;;27.13;72.57;100743.72;1815696;78;21082;-60
2021/08/10 09:19:53;;;;;;;;;;;;;;;27.29;71.77;100733.95;1818363;78;21078;-60
2021/08/10 09:22:32;;;;;;;7.70;4.20;;;;;;;27.59;71.43;100726.14;1816071;79;20163;-60
2021/08/10 09:25:05;;;;;;;7.53;4.47;;;;;;;27.51;70.46;100725.66;1814996;78;21074;-60
2021/08/10 09:27:40;;;;;;;6.12;4.62;;;;;;;27.20;70.58;100726.30;1814879;78;21110;-60
2021/08/10 09:30:13;;;;;;;7.50;4.75;;;;;;;26.99;71.24;100729.52;1815777;78;21148;-59
2021/08/10 09:33:00;;;;;;;9.15;4.85;;;;;;;26.81;71.63;100729.66;1816044;79;21059;-59
2021/08/10 09:35:37;;;;;;;9.75;5.83;;;;;;;26.68;71.96;100727.95;1815646;78;21078;-60
2021/08/10 09:38:18;;;;;;;10.48;5.80;;;;;;;26.58;72.38;100726.72;1815432;78;21090;-60
2021/08/10 09:40:52;;;;;;;10.50;5.80;;;;;;;26.57;72.43;100720.45;1816052;79;21079;-59
2021/08/10 09:43:26;;;;;;;8.35;5.20;;;;;;;26.53;72.69;100721.80;1815880;79;21149;-59
2021/08/10 09:46:11;;;;;;;9.60;5.92;;;;;;;26.49;72.51;100724.50;1815534;79;21530;-60
2021/08/10 09:48:42;;;;;;;9.23;6.05;;;;;;;26.49;72.61;100723.14;1815764;78;21099;-60
2021/08/10 09:51:16;;;;;;;8.25;5.78;;;;;;;26.50;72.63;100723.98;1816026;79;21048;-60
2021/08/10 09:53:59;;;;;;;9.58;5.70;;;;;;;26.51;73.08;100718.42;1816008;78;21055;-60
2021/08/10 09:56:40;;;;;;;8.60;6.00;;;;;;;26.57;73.17;100722.31;1815919;79;21087;-59
2021/08/10 09:59:09;;;;;;;12.00;6.42;;;;;;;26.59;72.90;100719.78;1815994;79;21051;-60
2021/08/10 10:01:45;;;;;;;10.13;6.35;;;;;;;26.68;72.84;100723.90;1823943;77;21114;-60
2021/08/10 10:04:17;;;;;;;9.05;6.17;;;;;;;26.79;72.92;100723.58;1850955;77;21548;-60
2021/08/10 10:06:49;;;;;;;8.18;5.53;;;;;;;26.93;72.86;100725.63;1850247;77;21544;-60
2021/08/10 10:09:19;;;;;;;8.63;5.90;;;;;;;27.02;71.67;100725.63;1851076;77;21043;-59
2021/08/10 10:11:50;;;;;;;9.55;5.10;;;;;;;27.18;71.80;100720.23;1851153;77;21035;-59
2021/08/10 10:14:19;;;;;;;10.75;4.97;;;;;;;27.30;71.30;100713.51;1851159;77;21141;-59
2021/08/10 10:16:51;;;;;;;8.80;5.55;;;;;;;27.53;71.01;100716.86;1851038;77;21137;-60
2021/08/10 10:19:21;;;;;;;10.78;6.37;;;;;;;27.72;70.38;100720.55;1850901;77;21090;-60
2021/08/10 10:21:55;;;;;;;10.32;4.37;;;;;;;27.93;69.48;100721.04;1851102;77;21039;-60
2021/08/10 10:24:25;;;;;;;8.83;4.62;;;;;;;28.19;68.63;100723.48;1849891;77;21094;-59
2021/08/10 10:26:57;;;;;;;10.88;4.72;;;;;;;28.42;67.96;100727.09;1851052;77;21050;-59
2021/08/10 10:29:27;;;;;;;9.05;4.58;;;;;;;28.46;67.65;100723.00;1850790;77;21047;-59
2021/08/10 10:31:57;;;;;;;10.00;4.95;;;;;;;28.29;67.64;100719.55;1850986;77;21054;-59
2021/08/10 10:34:27;;;;;;;7.83;4.60;;;;;;;28.16;67.83;100732.77;1850968;77;21497;-59
2021/08/10 10:36:57;;;;;;;10.05;5.53;;;;;;;28.04;67.92;100726.91;1851053;77;21058;-60
2021/08/10 10:39:31;;;;;;;8.40;5.58;;;;;;;27.91;68.42;100725.27;1851002;77;21486;-60
2021/08/10 10:42:03;;;;;;;13.00;5.65;;;;;;;27.84;68.46;100719.66;1850908;77;21114;-58
2021/08/10 10:44:51;;;;;;;10.90;5.00;;;;;;;27.79;68.88;100723.39;1851170;77;21553;-59
2021/08/10 10:47:29;;;;;;;8.05;4.70;;;;;;;27.95;68.66;100726.61;1850954;77;21079;-59
2021/08/10 10:50:03;;;;;;;10.03;5.37;;;;;;;28.21;67.93;100721.44;1850842;77;21050;-59
2021/08/10 10:52:34;;;;;;;8.38;5.22;;;;;;;28.45;67.47;100719.95;1850935;77;21055;-59
2021/08/10 10:55:05;;;;;;;8.83;4.55;;;;;;;28.80;66.73;100712.32;1850922;77;21626;-59
2021/08/10 10:57:36;;;;;;;9.10;4.75;;;;;;;29.07;66.45;100710.10;1850929;77;21128;-59
2021/08/10 11:00:14;;;;;;;11.90;5.85;;;;;;;29.07;65.34;100707.39;1850912;77;21551;-59
2021/08/10 11:02:45;;;;;;;7.83;4.78;;;;;;;28.90;66.08;100713.43;1850909;77;21168;-59
2021/08/10 11:05:23;;;;;;;9.55;4.95;;;;;;;28.77;66.22;100715.90;1850755;77;21067;-59
2021/08/10 11:07:54;;;;;;;8.80;5.15;;;;;;;28.73;65.67;100714.06;1851108;77;21145;-59
2021/08/10 11:10:44;;;;;;;8.85;5.05;;;;;;;28.67;65.81;100712.91;1850993;77;21044;-59
2021/08/10 11:13:21;;;;;;;9.68;4.80;;;;;;;28.82;65.18;100713.50;1850902;77;21063;-59
2021/08/10 11:15:52;;;;;;;10.20;5.35;;;;;;;28.94;65.25;100706.65;1850838;77;21180;-60
2021/08/10 11:18:22;;;;;;;9.25;5.22;;;;;;;29.02;65.30;100704.38;1850961;77;21125;-59
2021/08/10 11:20:54;;;;;;;9.28;4.87;;;;;;;29.10;65.03;100698.04;1850984;77;21055;-59
2021/08/10 11:23:26;;;;;;;9.48;4.58;;;;;;;29.08;64.74;100700.93;1851182;77;21121;-59
2021/08/10 11:26:01;;;;;;;10.30;6.08;;;;;;;28.94;65.24;100699.00;1851183;77;21486;-60
2021/08/10 11:28:38;;;;;;;10.80;5.50;;;;;;;28.91;65.65;100704.81;1847842;77;21054;-59
2021/08/10 11:31:10;;;;;;;10.23;5.55;;;;;;;28.98;65.49;100699.00;1851217;77;21117;-59
2021/08/10 11:33:45;;;;;;;9.70;5.53;;;;;;;29.08;65.24;100689.56;1851226;77;21039;-59
2021/08/10 11:36:16;;;;;;;7.75;4.75;;;;;;;29.16;65.43;100700.91;1851133;77;21031;-59